createdAt,value
2022-09-21T00:00:47.350Z,92.96
2022-09-21T00:03:13.631Z,93.00
2022-09-21T00:05:39.887Z,92.96
2022-09-21T00:08:06.134Z,93.19
2022-09-21T00:10:32.412Z,93.05
2022-09-21T00:12:58.991Z,93.69
2022-09-21T00:15:25.239Z,93.43
2022-09-21T00:17:51.490Z,93.27
2022-09-21T00:20:17.734Z,93.41
2022-09-21T00:22:44.097Z,93.60
2022-09-21T00:25:10.352Z,93.36
2022-09-21T00:27:36.611Z,93.57
2022-09-21T00:30:03.247Z,93.35
2022-09-21T00:32:31.253Z,93.48
2022-09-21T00:34:57.524Z,93.52
2022-09-21T00:37:23.771Z,93.54
2022-09-21T00:39:50.028Z,93.59
2022-09-21T00:42:16.299Z,93.82
2022-09-21T00:44:42.556Z,93.67
2022-09-21T00:47:09.031Z,93.92
2022-09-21T00:49:35.318Z,93.92
2022-09-21T00:52:02.031Z,93.59
2022-09-21T00:54:28.277Z,93.93
2022-09-21T00:56:54.539Z,94.12
2022-09-21T00:59:21.936Z,93.59
2022-09-21T01:01:49.051Z,94.33
2022-09-21T01:04:15.354Z,94.34
2022-09-21T01:06:41.639Z,94.02
2022-09-21T01:09:07.891Z,94.19
2022-09-21T01:11:34.421Z,94.06
2022-09-21T01:14:00.703Z,93.92
2022-09-21T01:16:27.037Z,93.96
2022-09-21T01:18:53.336Z,94.18
2022-09-21T01:21:19.772Z,95.09
2022-09-21T01:23:46.038Z,95.02
2022-09-21T01:26:12.291Z,95.07
2022-09-21T01:28:38.559Z,94.66
2022-09-21T01:31:05.927Z,94.68
2022-09-21T01:33:32.210Z,94.47
2022-09-21T01:35:58.635Z,95.01
2022-09-21T01:38:24.920Z,94.35
2022-09-21T01:40:51.187Z,94.28
2022-09-21T01:43:17.450Z,94.32
2022-09-21T01:45:43.720Z,94.42
2022-09-21T01:48:10.811Z,93.92
2022-09-21T01:50:36.982Z,93.87
2022-09-21T01:53:03.240Z,93.94
2022-09-21T01:55:29.655Z,93.68
2022-09-21T01:57:55.902Z,93.73
2022-09-21T02:00:22.168Z,93.01
2022-09-21T02:02:48.421Z,92.71
2022-09-21T02:05:16.364Z,92.25
2022-09-21T02:07:42.627Z,92.15
2022-09-21T02:10:08.878Z,92.61
2022-09-21T02:12:35.131Z,94.61
2022-09-21T02:15:01.379Z,94.06
2022-09-21T02:17:27.634Z,93.78
2022-09-21T02:19:54.329Z,93.67
2022-09-21T02:22:20.897Z,93.28
2022-09-21T02:24:47.190Z,93.53
2022-09-21T02:27:13.467Z,92.77
2022-09-21T02:29:39.719Z,93.18
2022-09-21T02:32:06.227Z,92.65
2022-09-21T02:34:33.385Z,93.26
2022-09-21T02:36:59.570Z,93.11
2022-09-21T02:39:25.821Z,92.18
2022-09-21T02:41:52.066Z,92.91
2022-09-21T02:44:18.791Z,92.62
2022-09-21T02:46:45.129Z,92.40
2022-09-21T02:49:11.415Z,92.01
2022-09-21T02:51:37.656Z,91.59
2022-09-21T02:54:03.898Z,92.32
2022-09-21T02:56:30.155Z,92.43
2022-09-21T02:58:56.820Z,92.59
2022-09-21T03:01:23.117Z,92.16
2022-09-21T03:03:49.365Z,92.32
2022-09-21T03:06:15.620Z,92.75
2022-09-21T03:08:41.874Z,92.96
2022-09-21T03:11:08.127Z,94.62
2022-09-21T03:13:34.567Z,93.91
2022-09-21T03:16:00.868Z,94.20
2022-09-21T03:18:27.142Z,94.55
2022-09-21T03:20:53.399Z,94.47
2022-09-21T03:23:19.679Z,94.64
2022-09-21T03:25:46.105Z,94.61
2022-09-21T03:28:13.390Z,94.37
2022-09-21T03:30:39.666Z,94.33
2022-09-21T03:33:06.319Z,94.06
2022-09-21T03:35:33.942Z,94.08
2022-09-21T03:38:00.200Z,94.36
2022-09-21T03:40:29.498Z,94.19
2022-09-21T03:42:55.951Z,94.52
2022-09-21T03:45:22.225Z,95.35
2022-09-21T03:47:48.494Z,95.32
2022-09-21T03:50:14.741Z,94.76
2022-09-21T03:52:40.999Z,94.92
2022-09-21T03:55:07.252Z,94.68
2022-09-21T03:57:34.307Z,94.71
2022-09-21T04:00:00.554Z,95.09
2022-09-21T04:02:27.181Z,95.24
2022-09-21T04:04:53.441Z,96.30
2022-09-21T04:07:19.715Z,95.78
2022-09-21T04:09:45.967Z,95.44
2022-09-21T04:12:12.282Z,95.29
2022-09-21T04:14:38.537Z,95.19
2022-09-21T04:17:04.847Z,95.53
2022-09-21T04:19:31.123Z,95.37
2022-09-21T04:21:57.541Z,95.43
2022-09-21T04:24:23.798Z,95.82
2022-09-21T04:26:50.152Z,95.68
2022-09-21T04:29:16.443Z,95.89
2022-09-21T04:31:42.717Z,95.66
2022-09-21T04:34:08.964Z,95.40
2022-09-21T04:36:36.803Z,94.91
2022-09-21T04:39:03.222Z,94.67
2022-09-21T04:41:29.492Z,94.70
2022-09-21T04:43:55.753Z,94.74
2022-09-21T04:46:22.183Z,94.24
2022-09-21T04:48:48.483Z,94.20
2022-09-21T04:51:14.752Z,94.24
2022-09-21T04:53:42.010Z,93.67
2022-09-21T04:56:08.260Z,93.81
2022-09-21T04:58:34.514Z,93.80
2022-09-21T05:01:00.795Z,93.40
2022-09-21T05:03:27.101Z,93.80
2022-09-21T05:05:56.556Z,93.82
2022-09-21T05:08:42.863Z,93.08
2022-09-21T05:11:09.779Z,93.02
2022-09-21T05:13:36.040Z,93.01
2022-09-21T05:16:02.451Z,92.91
2022-09-21T05:18:29.433Z,93.03
2022-09-21T05:20:56.044Z,92.79
2022-09-21T05:23:22.294Z,92.60
2022-09-21T05:25:48.542Z,92.79
2022-09-21T05:28:14.799Z,93.30
2022-09-21T05:30:56.109Z,93.17
2022-09-21T05:33:27.275Z,93.85
2022-09-21T05:35:54.081Z,93.71
2022-09-21T05:38:20.601Z,93.96
2022-09-21T05:40:50.253Z,92.96
2022-09-21T05:43:16.511Z,93.19
2022-09-21T05:45:47.277Z,93.16
2022-09-21T05:48:14.129Z,93.26
2022-09-21T05:50:40.387Z,94.30
2022-09-21T05:53:06.629Z,93.28
2022-09-21T05:55:32.891Z,93.12
2022-09-21T05:57:59.246Z,92.57
2022-09-21T06:00:25.547Z,92.37
2022-09-21T06:02:51.816Z,91.99
2022-09-21T06:05:18.073Z,91.34
2022-09-21T06:07:44.357Z,91.57
2022-09-21T06:10:10.610Z,91.31
2022-09-21T06:12:36.899Z,91.00
2022-09-21T06:15:03.216Z,90.18
2022-09-21T06:17:29.481Z,90.04
2022-09-21T06:19:55.822Z,90.03
2022-09-21T06:22:22.062Z,89.54
2022-09-21T06:24:48.476Z,90.22
2022-09-21T06:27:14.733Z,89.16
2022-09-21T06:29:40.991Z,89.62
2022-09-21T06:32:07.251Z,89.11
2022-09-21T06:34:36.645Z,88.67
2022-09-21T06:37:03.247Z,88.53
2022-09-21T06:39:29.518Z,88.47
2022-09-21T06:41:56.365Z,87.71
2022-09-21T06:44:22.611Z,88.00
2022-09-21T06:46:48.865Z,86.81
2022-09-21T06:49:15.140Z,88.18
2022-09-21T06:51:41.391Z,87.87
2022-09-21T06:54:07.691Z,86.97
2022-09-21T06:56:34.043Z,87.63
2022-09-21T06:59:00.326Z,87.49
2022-09-21T07:01:26.661Z,86.53
2022-09-21T07:03:53.977Z,85.93
2022-09-21T07:06:20.374Z,85.58
2022-09-21T07:11:32.930Z,84.58
2022-09-21T07:13:59.742Z,84.13
2022-09-21T07:16:26.114Z,83.63
2022-09-21T07:18:52.419Z,83.42
2022-09-21T07:21:18.680Z,82.67
2022-09-21T07:23:45.027Z,83.10
2022-09-21T07:26:11.283Z,83.24
2022-09-21T07:28:37.537Z,83.28
2022-09-21T07:31:03.798Z,82.30
2022-09-21T07:33:36.017Z,81.78
2022-09-21T07:36:03.942Z,81.61
2022-09-21T07:38:30.196Z,80.93
2022-09-21T07:40:56.464Z,83.04
2022-09-21T07:43:22.730Z,81.66
2022-09-21T07:45:49.111Z,81.06
2022-09-21T07:48:15.380Z,81.45
2022-09-21T07:50:42.015Z,80.36
2022-09-21T07:53:08.282Z,81.27
2022-09-21T07:55:34.604Z,80.68
2022-09-21T07:58:19.616Z,80.24
2022-09-21T08:00:45.998Z,80.60
2022-09-21T08:03:12.772Z,79.57
2022-09-21T08:05:39.032Z,79.16
2022-09-21T08:08:05.278Z,78.59
2022-09-21T08:10:32.721Z,78.94
2022-09-21T08:12:59.062Z,78.95
2022-09-21T08:15:47.565Z,79.48
2022-09-21T08:18:11.883Z,80.58
2022-09-21T08:20:38.757Z,80.17
2022-09-21T08:23:04.999Z,79.54
2022-09-21T08:25:31.475Z,78.53
2022-09-21T08:27:58.157Z,77.78
2022-09-21T08:30:27.857Z,78.30
2022-09-21T08:32:54.192Z,78.23
2022-09-21T08:35:20.471Z,78.28
2022-09-21T08:37:46.722Z,78.06
2022-09-21T08:40:15.076Z,76.63
2022-09-21T08:42:41.414Z,76.41
2022-09-21T08:45:10.022Z,74.69
2022-09-21T08:47:36.294Z,76.07
2022-09-21T08:50:02.550Z,74.72
2022-09-21T08:52:28.831Z,74.23
2022-09-21T08:54:55.085Z,75.48
2022-09-21T08:57:21.456Z,75.92
2022-09-21T08:59:47.757Z,75.92
2022-09-21T09:02:14.210Z,75.08
2022-09-21T09:04:40.564Z,74.38
2022-09-21T09:07:06.839Z,73.41
2022-09-21T09:09:33.099Z,74.59
2022-09-21T09:11:59.368Z,75.29
2022-09-21T09:14:25.940Z,75.99
2022-09-21T09:16:52.204Z,74.83
2022-09-21T09:19:18.457Z,75.80
2022-09-21T09:21:44.731Z,75.94
2022-09-21T09:24:11.021Z,75.24
2022-09-21T09:26:37.466Z,74.88
2022-09-21T09:29:03.727Z,72.51
2022-09-21T09:31:30.170Z,73.80
2022-09-21T09:33:56.912Z,74.45
2022-09-21T09:36:46.549Z,73.24
2022-09-21T09:39:11.862Z,72.65
2022-09-21T09:41:38.150Z,72.31
2022-09-21T09:44:04.410Z,73.18
2022-09-21T09:46:31.249Z,72.97
2022-09-21T09:48:57.671Z,73.43
2022-09-21T09:51:23.928Z,71.92
2022-09-21T09:53:50.571Z,73.53
2022-09-21T09:56:16.819Z,72.67
2022-09-21T09:58:43.071Z,72.83
2022-09-21T10:01:09.330Z,72.61
2022-09-21T10:03:36.134Z,72.89
2022-09-21T10:06:02.386Z,72.22
2022-09-21T10:08:28.746Z,72.18
2022-09-21T10:10:55.007Z,71.76
2022-09-21T10:13:21.250Z,69.27
2022-09-21T10:15:47.732Z,67.93
2022-09-21T10:18:14.021Z,67.14
2022-09-21T10:20:40.283Z,69.29
2022-09-21T10:23:06.554Z,67.05
2022-09-21T10:25:36.855Z,66.67
2022-09-21T10:28:05.979Z,66.07
2022-09-21T10:30:32.315Z,66.87
2022-09-21T10:32:58.566Z,67.10
2022-09-21T10:35:25.092Z,67.11
2022-09-21T10:37:54.370Z,67.77
2022-09-21T10:40:20.785Z,67.81
2022-09-21T10:42:47.113Z,69.47
2022-09-21T10:45:14.507Z,70.10
2022-09-21T10:47:40.805Z,69.16
2022-09-21T10:50:07.055Z,69.17
2022-09-21T10:52:33.311Z,68.32
2022-09-21T10:54:59.566Z,68.55
2022-09-21T10:57:25.893Z,66.83
2022-09-21T10:59:52.181Z,66.71
2022-09-21T11:02:18.487Z,67.53
2022-09-21T11:04:44.787Z,67.98
2022-09-21T11:07:11.062Z,67.77
2022-09-21T11:09:37.325Z,67.25
2022-09-21T11:12:04.315Z,65.54
2022-09-21T11:14:30.575Z,66.60
2022-09-21T11:16:56.849Z,66.46
2022-09-21T11:19:23.095Z,67.14
2022-09-21T11:21:49.344Z,66.94
2022-09-21T11:24:15.594Z,66.31
2022-09-21T11:29:13.359Z,65.72
2022-09-21T11:31:39.683Z,65.88
2022-09-21T11:34:06.046Z,65.58
2022-09-21T11:36:32.449Z,65.80
2022-09-21T11:38:58.701Z,65.65
2022-09-21T11:41:24.976Z,66.45
2022-09-21T11:43:51.315Z,65.52
2022-09-21T11:46:17.660Z,62.68
2022-09-21T11:48:43.955Z,61.63
2022-09-21T11:51:10.208Z,63.13
2022-09-21T11:53:37.004Z,62.69
2022-09-21T11:56:03.536Z,62.70
2022-09-21T11:58:29.843Z,62.52
2022-09-21T12:00:58.194Z,63.42
2022-09-21T12:03:24.471Z,63.98
2022-09-21T12:05:50.824Z,63.78
2022-09-21T12:08:17.116Z,63.33
2022-09-21T12:10:43.458Z,62.22
2022-09-21T12:13:09.741Z,60.27
2022-09-21T12:15:36.003Z,62.15
2022-09-21T12:18:02.262Z,62.33
2022-09-21T12:20:28.539Z,62.57
2022-09-21T12:22:54.803Z,61.94
2022-09-21T12:25:21.418Z,62.28
2022-09-21T12:27:47.680Z,62.31
2022-09-21T12:30:13.963Z,60.33
2022-09-21T12:32:40.224Z,60.73
2022-09-21T12:35:06.629Z,62.51
2022-09-21T12:37:32.882Z,60.30
2022-09-21T12:39:59.238Z,61.12
2022-09-21T12:42:25.558Z,59.29
2022-09-21T12:44:52.221Z,61.18
2022-09-21T12:47:18.706Z,60.77
2022-09-21T12:49:44.969Z,60.23
2022-09-21T12:52:11.227Z,60.84
2022-09-21T12:54:37.925Z,61.48
2022-09-21T12:57:23.487Z,61.60
2022-09-21T12:59:50.564Z,59.60
2022-09-21T13:02:17.353Z,60.33
2022-09-21T13:04:43.736Z,59.57
2022-09-21T13:07:09.993Z,58.36
2022-09-21T13:09:36.242Z,57.71
2022-09-21T13:12:04.247Z,59.47
2022-09-21T13:14:30.414Z,60.36
2022-09-21T13:16:57.617Z,59.71
2022-09-21T13:19:23.867Z,60.47
2022-09-21T13:21:50.302Z,59.48
2022-09-21T13:24:16.590Z,59.64
2022-09-21T13:26:42.849Z,59.77
2022-09-21T13:29:09.684Z,61.43
2022-09-21T13:31:40.893Z,61.32
2022-09-21T13:34:08.900Z,61.40
2022-09-21T13:36:35.250Z,62.67
2022-09-21T13:39:01.507Z,62.84
2022-09-21T13:41:45.533Z,62.23
2022-09-21T13:44:14.026Z,62.40
2022-09-21T13:46:40.283Z,62.55
2022-09-21T13:49:06.546Z,62.81
2022-09-21T13:51:33.237Z,61.23
2022-09-21T13:54:00.463Z,61.96
2022-09-21T13:56:26.710Z,61.15
2022-09-21T13:58:52.987Z,60.18
2022-09-21T14:01:45.076Z,60.17
2022-09-21T14:04:06.559Z,58.81
2022-09-21T14:06:35.108Z,59.46
2022-09-21T14:09:01.376Z,57.81
2022-09-21T14:11:28.001Z,59.37
2022-09-21T14:13:54.480Z,59.13
2022-09-21T14:16:20.843Z,59.97
2022-09-21T14:18:47.323Z,59.31
2022-09-21T14:21:22.387Z,60.06
2022-09-21T14:23:48.637Z,62.55
2022-09-21T14:26:14.895Z,64.08
2022-09-21T14:28:41.166Z,67.79
2022-09-21T14:31:07.464Z,64.95
2022-09-21T14:33:33.767Z,66.30
2022-09-21T14:36:01.755Z,69.21
2022-09-21T14:38:28.165Z,68.71
2022-09-21T14:40:54.421Z,69.69
2022-09-21T14:43:23.664Z,73.41
2022-09-21T14:45:50.320Z,73.61
2022-09-21T14:48:16.584Z,73.35
2022-09-21T14:50:43.060Z,74.37
2022-09-21T14:53:09.470Z,75.56
2022-09-21T14:55:35.718Z,75.99
2022-09-21T14:58:01.983Z,73.23
2022-09-21T15:00:28.247Z,75.10
2022-09-21T15:02:54.677Z,76.79
2022-09-21T15:05:20.941Z,77.17
2022-09-21T15:08:06.155Z,77.68
2022-09-21T15:10:54.528Z,77.96
2022-09-21T15:13:21.795Z,78.16
2022-09-21T15:15:48.133Z,78.39
2022-09-21T15:18:20.267Z,79.59
2022-09-21T15:20:48.163Z,80.67
2022-09-21T15:23:14.464Z,81.57
2022-09-21T15:25:40.725Z,81.51
2022-09-21T15:28:07.392Z,81.07
2022-09-21T15:30:33.675Z,81.77
2022-09-21T15:32:59.942Z,82.02
2022-09-21T15:35:27.680Z,82.23
2022-09-21T15:37:53.964Z,82.87
2022-09-21T15:40:20.614Z,82.66
2022-09-21T15:42:46.935Z,82.23
2022-09-21T15:45:13.186Z,80.68
2022-09-21T15:47:42.178Z,82.09
2022-09-21T15:50:09.167Z,85.14
2022-09-21T15:52:36.089Z,84.81
2022-09-21T15:55:02.783Z,85.36
2022-09-21T15:57:29.043Z,86.26
2022-09-21T15:59:56.078Z,85.90
2022-09-21T16:02:22.268Z,84.94
2022-09-21T16:04:52.456Z,84.51
2022-09-21T16:07:18.710Z,84.72
2022-09-21T16:09:47.923Z,86.66
2022-09-21T16:12:14.240Z,86.93
2022-09-21T16:14:55.908Z,85.45
2022-09-21T16:17:22.295Z,85.32
2022-09-21T16:19:49.609Z,84.17
2022-09-21T16:22:15.885Z,83.82
2022-09-21T16:24:42.163Z,85.00
2022-09-21T16:27:08.405Z,86.47
2022-09-21T16:29:34.677Z,86.39
2022-09-21T16:32:00.997Z,86.68
2022-09-21T16:34:27.293Z,86.69
2022-09-21T16:36:54.626Z,86.41
2022-09-21T16:39:22.642Z,86.47
2022-09-21T16:41:48.903Z,86.45
2022-09-21T16:44:19.625Z,86.34
2022-09-21T16:46:46.121Z,86.62
2022-09-21T16:49:15.346Z,86.82
2022-09-21T16:51:41.618Z,86.92
2022-09-21T16:54:08.474Z,86.89
2022-09-21T16:56:34.910Z,87.42
2022-09-21T16:59:03.863Z,87.46
2022-09-21T17:01:30.153Z,87.16
2022-09-21T17:03:56.718Z,87.41
2022-09-21T17:06:22.970Z,87.60
2022-09-21T17:08:49.282Z,87.69
2022-09-21T17:11:19.717Z,87.50
2022-09-21T17:13:45.988Z,87.76
2022-09-21T17:16:12.284Z,87.63
2022-09-21T17:18:38.937Z,87.71
2022-09-21T17:21:05.241Z,87.35
2022-09-21T17:23:31.523Z,87.32
2022-09-21T17:25:57.822Z,87.40
2022-09-21T17:28:25.942Z,87.42
2022-09-21T17:30:52.185Z,87.74
2022-09-21T17:33:19.801Z,87.53
2022-09-21T17:35:46.061Z,87.87
2022-09-21T17:38:14.526Z,87.21
2022-09-21T17:40:42.780Z,87.28
2022-09-21T17:43:11.878Z,86.76
2022-09-21T17:45:38.712Z,89.32
2022-09-21T17:48:04.971Z,89.27
2022-09-21T17:50:31.490Z,89.24
2022-09-21T17:53:16.258Z,89.96
2022-09-21T17:55:42.506Z,89.08
2022-09-21T17:58:09.812Z,89.50
2022-09-21T18:00:36.077Z,88.80
2022-09-21T18:03:02.699Z,87.99
2022-09-21T18:05:29.086Z,87.94
2022-09-21T18:07:55.336Z,88.01
2022-09-21T18:10:21.580Z,88.34
2022-09-21T18:12:48.757Z,88.31
2022-09-21T18:15:15.592Z,88.04
2022-09-21T18:17:41.838Z,87.94
2022-09-21T18:20:08.168Z,89.12
2022-09-21T18:22:37.260Z,89.42
2022-09-21T18:25:03.530Z,89.03
2022-09-21T18:27:32.942Z,88.21
2022-09-21T18:29:59.202Z,87.91
2022-09-21T18:32:25.462Z,88.38
2022-09-21T18:34:51.958Z,88.20
2022-09-21T18:37:18.661Z,87.82
2022-09-21T18:39:44.917Z,87.43
2022-09-21T18:42:11.175Z,87.33
2022-09-21T18:44:37.433Z,87.42
2022-09-21T18:47:03.845Z,88.31
2022-09-21T18:49:31.322Z,88.15
2022-09-21T18:51:57.859Z,88.15
2022-09-21T18:54:24.215Z,87.61
2022-09-21T18:56:50.489Z,87.20
2022-09-21T18:59:17.187Z,87.57
2022-09-21T19:01:43.568Z,87.77
2022-09-21T19:04:09.896Z,87.84
2022-09-21T19:06:37.472Z,87.30
2022-09-21T19:09:03.748Z,86.99
2022-09-21T19:11:32.094Z,86.71
2022-09-21T19:13:58.342Z,86.99
2022-09-21T19:16:24.623Z,86.77
2022-09-21T19:18:51.504Z,86.53
2022-09-21T19:21:17.759Z,86.67
2022-09-21T19:23:44.009Z,86.75
2022-09-21T19:26:12.018Z,86.76
2022-09-21T19:28:41.596Z,87.02
2022-09-21T19:31:07.860Z,87.48
2022-09-21T19:33:51.014Z,88.27
2022-09-21T19:36:17.705Z,88.24
2022-09-21T19:38:43.992Z,87.84
2022-09-21T19:41:10.307Z,88.01
2022-09-21T19:43:36.569Z,87.23
2022-09-21T19:46:04.951Z,87.73
2022-09-21T19:48:31.279Z,87.63
2022-09-21T19:50:58.794Z,87.72
2022-09-21T19:53:43.849Z,87.81
2022-09-21T19:56:28.577Z,88.31
2022-09-21T19:59:13.346Z,88.34
2022-09-21T20:01:42.087Z,88.78
2022-09-21T20:04:08.386Z,88.48
2022-09-21T20:06:35.554Z,89.68
2022-09-21T20:09:03.087Z,89.41
2022-09-21T20:11:29.679Z,88.66
2022-09-21T20:13:56.338Z,89.11
2022-09-21T20:16:22.972Z,88.06
2022-09-21T20:18:49.879Z,87.90
2022-09-21T20:21:16.236Z,87.90
2022-09-21T20:23:42.482Z,87.72
2022-09-21T20:26:08.745Z,87.75
2022-09-21T20:28:35.879Z,87.98
2022-09-21T20:31:02.131Z,88.12
2022-09-21T20:33:28.432Z,88.27
2022-09-21T20:35:55.812Z,88.17
2022-09-21T20:38:23.009Z,87.98
2022-09-21T20:40:49.233Z,87.84
2022-09-21T20:43:15.852Z,88.16
2022-09-21T20:45:48.006Z,88.68
2022-09-21T20:48:14.435Z,88.82
2022-09-21T20:50:40.688Z,89.19
2022-09-21T20:53:07.735Z,89.41
2022-09-21T20:55:33.991Z,88.38
2022-09-21T21:00:53.048Z,88.63
2022-09-21T21:03:21.476Z,88.48
2022-09-21T21:05:47.740Z,89.12
2022-09-21T21:08:13.990Z,89.29
2022-09-21T21:10:40.379Z,89.00
2022-09-21T21:13:06.626Z,88.80
2022-09-21T21:15:32.902Z,88.69
2022-09-21T21:17:59.159Z,89.03
2022-09-21T21:20:25.646Z,88.91
2022-09-21T21:22:51.994Z,89.62
2022-09-21T21:25:18.281Z,89.94
2022-09-21T21:27:44.544Z,90.70
2022-09-21T21:30:11.256Z,91.17
2022-09-21T21:32:37.531Z,91.12
2022-09-21T21:35:03.819Z,90.94
2022-09-21T21:37:30.071Z,90.62
2022-09-21T21:39:56.907Z,90.60
2022-09-21T21:42:24.729Z,90.63
2022-09-21T21:44:51.035Z,90.67
2022-09-21T21:50:03.706Z,91.56
2022-09-21T21:52:30.309Z,91.43
2022-09-21T21:54:56.591Z,90.92
2022-09-21T21:57:22.842Z,91.29
2022-09-21T21:59:49.096Z,90.95
2022-09-21T22:02:15.644Z,91.08
2022-09-21T22:04:42.091Z,91.00
2022-09-21T22:07:08.360Z,91.09
2022-09-21T22:09:34.620Z,91.51
2022-09-21T22:12:01.851Z,91.17
2022-09-21T22:14:28.247Z,90.97
2022-09-21T22:16:54.616Z,91.43
2022-09-21T22:19:20.975Z,90.95
2022-09-21T22:21:51.721Z,90.74
2022-09-21T22:24:21.066Z,91.04
2022-09-21T22:26:48.436Z,91.08
2022-09-21T22:29:14.727Z,91.01
2022-09-21T22:31:41.187Z,91.52
2022-09-21T22:34:08.970Z,92.25
2022-09-21T22:36:35.312Z,92.51
2022-09-21T22:39:01.630Z,92.34
2022-09-21T22:41:27.883Z,91.90
2022-09-21T22:43:54.139Z,91.31
2022-09-21T22:46:20.398Z,91.25
2022-09-21T22:48:46.827Z,91.75
2022-09-21T22:51:13.081Z,91.42
2022-09-21T22:53:39.330Z,91.37
2022-09-21T22:56:05.578Z,91.44
2022-09-21T22:58:31.851Z,91.49
2022-09-21T23:00:58.116Z,91.69
2022-09-21T23:03:24.391Z,91.76
2022-09-21T23:05:50.637Z,91.55
2022-09-21T23:08:16.895Z,91.38
2022-09-21T23:10:43.155Z,90.95
2022-09-21T23:13:09.396Z,91.25
2022-09-21T23:15:35.663Z,90.76
2022-09-21T23:18:02.052Z,90.78
2022-09-21T23:20:28.310Z,90.88
2022-09-21T23:22:54.596Z,91.44
2022-09-21T23:25:20.883Z,91.06
2022-09-21T23:27:47.135Z,91.23
2022-09-21T23:30:13.404Z,90.82
2022-09-21T23:32:39.646Z,91.37
2022-09-21T23:35:05.899Z,91.55
2022-09-21T23:37:32.158Z,91.89
2022-09-21T23:39:58.734Z,92.77
2022-09-21T23:42:24.974Z,92.79
2022-09-21T23:44:51.231Z,93.20
2022-09-21T23:47:17.487Z,93.04
2022-09-21T23:49:43.744Z,93.35
2022-09-21T23:52:10.009Z,92.93
2022-09-21T23:54:36.602Z,92.90
2022-09-21T23:57:02.918Z,92.44
2022-09-21T23:59:29.171Z,92.23
